Time,TemperatureF,DewpointF,PressureIn,WindDirection,WindDirectionDegrees,WindSpeedMPH,WindSpeedGustMPH,Humidity,HourlyPrecipIn,Conditions,Clouds,dailyrainin,SoftwareType,DateUTC
2013-02-05 00:00:00,48.3,37.8,30.31,WNW,295,2.0,2.0,67,0.00,,,0.00,Wunderground v.1.13,2013-02-04 23:00:00,
2013-02-05 00:10:00,47.7,37.7,30.31,WNW,296,1.0,1.0,68,0.00,,,0.00,Wunderground v.1.13,2013-02-04 23:10:00,
2013-02-05 00:15:00,47.4,37.7,30.31,WNW,296,0.0,0.0,69,0.00,,,0.00,Wunderground v.1.13,2013-02-04 23:15:00,
2013-02-05 00:25:00,47.0,37.7,30.31,West,270,0.0,0.0,70,0.00,,,0.00,Wunderground v.1.13,2013-02-04 23:25:00,
2013-02-05 00:35:00,46.9,37.6,30.31,West,269,0.0,0.0,70,0.00,,,0.00,Wunderground v.1.13,2013-02-04 23:35:00,
2013-02-05 00:40:00,46.9,37.6,30.31,West,270,1.0,2.0,70,0.00,,,0.00,Wunderground v.1.13,2013-02-04 23:40:00,
2013-02-05 00:45:00,46.9,37.6,30.31,West,270,1.0,1.0,70,0.00,,,0.00,Wunderground v.1.13,2013-02-04 23:45:00,
2013-02-05 00:50:00,46.9,37.6,30.31,West,269,0.0,2.0,70,0.00,,,0.00,Wunderground v.1.13,2013-02-04 23:50:00,
2013-02-05 00:55:00,46.9,37.6,30.31,West,269,0.0,0.0,70,0.00,,,0.00,Wunderground v.1.13,2013-02-04 23:55:00,
2013-02-05 01:00:00,46.7,37.4,30.31,West,270,0.0,0.0,70,0.00,,,0.00,Wunderground v.1.13,2013-02-05 00:00:00,
2013-02-05 01:10:00,46.5,37.6,30.31,West,270,0.0,0.0,71,0.00,,,0.00,Wunderground v.1.13,2013-02-05 00:10:00,
2013-02-05 01:15:00,46.5,37.6,30.31,West,269,0.0,0.0,71,0.00,,,0.00,Wunderground v.1.13,2013-02-05 00:15:00,
2013-02-05 01:25:00,46.0,37.1,30.30,West,270,0.0,0.0,71,0.00,,,0.00,Wunderground v.1.13,2013-02-05 00:25:00,
2013-02-05 01:30:00,45.8,37.3,30.30,West,270,0.0,0.0,72,0.00,,,0.00,Wunderground v.1.13,2013-02-05 00:30:00,
2013-02-05 01:35:00,45.8,37.6,30.30,West,269,0.0,0.0,73,0.00,,,0.00,Wunderground v.1.13,2013-02-05 00:35:00,
2013-02-05 01:40:00,45.9,37.7,30.30,North,360,0.0,0.0,73,0.00,,,0.00,Wunderground v.1.13,2013-02-05 00:40:00,
2013-02-05 01:45:00,46.1,37.6,30.30,North,360,0.0,0.0,72,0.00,,,0.00,Wunderground v.1.13,2013-02-05 00:45:00,
2013-02-05 01:50:00,46.1,37.9,30.30,West,269,0.0,0.0,73,0.00,,,0.00,Wunderground v.1.13,2013-02-05 00:50:00,
2013-02-05 01:55:00,46.1,37.9,30.30,West,270,0.0,0.0,73,0.00,,,0.00,Wunderground v.1.13,2013-02-05 00:55:00,
2013-02-05 02:00:00,46.2,38.0,30.30,West,269,0.0,0.0,73,0.00,,,0.00,Wunderground v.1.13,2013-02-05 01:00:00,
2013-02-05 02:10:00,45.8,37.6,30.30,North,360,0.0,0.0,73,0.00,,,0.00,Wunderground v.1.13,2013-02-05 01:10:00,
2013-02-05 02:20:00,45.0,36.9,30.30,West,269,0.0,0.0,73,0.00,,,0.00,Wunderground v.1.13,2013-02-05 01:20:00,
2013-02-05 02:25:00,44.7,36.9,30.29,North,360,0.0,0.0,74,0.00,,,0.00,Wunderground v.1.13,2013-02-05 01:25:00,
2013-02-05 02:35:00,44.8,37.4,30.29,West,269,0.0,0.0,75,0.00,,,0.00,Wunderground v.1.13,2013-02-05 01:35:00,
2013-02-05 02:40:00,45.5,38.4,30.29,West,270,0.0,0.0,76,0.00,,,0.00,Wunderground v.1.13,2013-02-05 01:40:00,
2013-02-05 02:45:00,45.9,38.4,30.29,North,360,0.0,0.0,75,0.00,,,0.00,Wunderground v.1.13,2013-02-05 01:45:00,
2013-02-05 02:50:00,45.9,38.4,30.29,West,269,0.0,0.0,75,0.00,,,0.00,Wunderground v.1.13,2013-02-05 01:50:00,
2013-02-05 02:55:00,45.9,38.4,30.29,West,269,0.0,0.0,75,0.00,,,0.00,Wunderground v.1.13,2013-02-05 01:55:00,
2013-02-05 03:00:00,45.6,37.8,30.29,North,360,0.0,0.0,74,0.00,,,0.00,Wunderground v.1.13,2013-02-05 02:00:00,
2013-02-05 03:10:00,45.4,37.9,30.29,North,360,0.0,0.0,75,0.00,,,0.00,Wunderground v.1.13,2013-02-05 02:10:00,
2013-02-05 03:15:00,45.3,38.2,30.28,West,269,0.0,2.0,76,0.00,,,0.00,Wunderground v.1.13,2013-02-05 02:15:00,
2013-02-05 03:20:00,45.5,38.4,30.28,West,271,1.0,1.0,76,0.00,,,0.00,Wunderground v.1.13,2013-02-05 02:20:00,
2013-02-05 03:25:00,46.1,39.0,30.28,West,270,1.0,1.0,76,0.00,,,0.00,Wunderground v.1.13,2013-02-05 02:25:00,
2013-02-05 03:30:00,46.9,39.7,30.27,West,281,1.0,7.0,76,0.00,,,0.00,Wunderground v.1.13,2013-02-05 02:30:00,
2013-02-05 03:35:00,47.1,39.6,30.27,North,360,1.0,3.0,75,0.00,,,0.00,Wunderground v.1.13,2013-02-05 02:35:00,
2013-02-05 03:45:00,47.3,39.8,30.27,SW,234,1.0,1.0,75,0.00,,,0.00,Wunderground v.1.13,2013-02-05 02:45:00,
2013-02-05 03:50:00,47.4,39.9,30.27,WSW,240,1.0,1.0,75,0.00,,,0.00,Wunderground v.1.13,2013-02-05 02:50:00,
2013-02-05 04:00:00,47.7,40.8,30.26,WSW,244,1.0,2.0,77,0.00,,,0.00,Wunderground v.1.13,2013-02-05 03:00:00,
2013-02-05 04:10:00,48.8,42.2,30.26,WSW,254,3.0,6.0,78,0.00,,,0.00,Wunderground v.1.13,2013-02-05 03:10:00,
2013-02-05 04:15:00,49.2,42.6,30.26,North,360,5.0,11.0,78,0.00,,,0.00,Wunderground v.1.13,2013-02-05 03:15:00,
2013-02-05 04:20:00,49.2,42.3,30.26,WSW,246,5.0,5.0,77,0.00,,,0.00,Wunderground v.1.13,2013-02-05 03:20:00,
2013-02-05 04:25:00,49.0,42.1,30.26,WSW,239,4.0,4.0,77,0.00,,,0.00,Wunderground v.1.13,2013-02-05 03:25:00,
2013-02-05 04:30:00,48.8,41.9,30.25,WSW,257,3.0,3.0,77,0.00,,,0.00,Wunderground v.1.13,2013-02-05 03:30:00,
2013-02-05 04:35:00,48.7,41.8,30.25,WSW,250,2.0,2.0,77,0.00,,,0.00,Wunderground v.1.13,2013-02-05 03:35:00,
2013-02-05 04:45:00,48.2,41.7,30.25,North,360,2.0,5.0,78,0.00,,,0.00,Wunderground v.1.13,2013-02-05 03:45:00,
2013-02-05 04:55:00,47.7,41.2,30.25,North,360,3.0,3.0,78,0.00,,,0.00,Wunderground v.1.13,2013-02-05 03:55:00,
2013-02-05 05:00:00,47.6,41.1,30.25,North,360,2.0,4.0,78,0.00,,,0.00,Wunderground v.1.13,2013-02-05 04:00:00,
2013-02-05 05:10:00,47.2,41.0,30.25,WSW,238,2.0,2.0,79,0.00,,,0.00,Wunderground v.1.13,2013-02-05 04:10:00,
2013-02-05 05:15:00,47.2,41.0,30.24,North,360,2.0,2.0,79,0.00,,,0.00,Wunderground v.1.13,2013-02-05 04:15:00,
2013-02-05 05:20:00,47.2,41.3,30.24,SSW,209,2.0,2.0,80,0.00,,,0.00,Wunderground v.1.13,2013-02-05 04:20:00,
2013-02-05 05:25:00,47.2,41.0,30.24,SW,235,2.0,2.0,79,0.00,,,0.00,Wunderground v.1.13,2013-02-05 04:25:00,
2013-02-05 05:35:00,46.9,41.1,30.24,WSW,257,1.0,1.0,80,0.00,,,0.00,Wunderground v.1.13,2013-02-05 04:35:00,
2013-02-05 05:45:00,46.4,40.6,30.24,WSW,258,0.0,0.0,80,0.00,,,0.00,Wunderground v.1.13,2013-02-05 04:45:00,
2013-02-05 05:50:00,46.2,40.7,30.23,WSW,257,0.0,0.0,81,0.00,,,0.00,Wunderground v.1.13,2013-02-05 04:50:00,
2013-02-05 05:55:00,46.1,40.6,30.23,WSW,258,0.0,0.0,81,0.00,,,0.00,Wunderground v.1.13,2013-02-05 04:55:00,
2013-02-05 06:00:00,46.0,40.8,30.23,SW,215,0.0,2.0,82,0.00,,,0.00,Wunderground v.1.13,2013-02-05 05:00:00,
2013-02-05 06:05:00,45.9,40.7,30.23,SW,215,0.0,0.0,82,0.00,,,0.00,Wunderground v.1.13,2013-02-05 05:05:00,
2013-02-05 06:10:00,45.8,40.6,30.23,SW,217,0.0,0.0,82,0.00,,,0.00,Wunderground v.1.13,2013-02-05 05:10:00,
2013-02-05 06:15:00,45.8,40.9,30.23,North,360,0.0,2.0,83,0.00,,,0.00,Wunderground v.1.13,2013-02-05 05:15:00,
2013-02-05 06:20:00,46.7,41.8,30.23,North,360,1.0,1.0,83,0.00,,,0.00,Wunderground v.1.13,2013-02-05 05:20:00,
2013-02-05 06:30:00,47.3,41.8,30.23,SSW,213,1.0,1.0,81,0.00,,,0.00,Wunderground v.1.13,2013-02-05 05:30:00,
2013-02-05 06:35:00,47.0,41.5,30.23,SSW,212,1.0,1.0,81,0.00,,,0.00,Wunderground v.1.13,2013-02-05 05:35:00,
2013-02-05 06:45:00,46.2,41.0,30.23,North,360,0.0,2.0,82,0.00,,,0.00,Wunderground v.1.13,2013-02-05 05:45:00,
2013-02-05 06:50:00,46.0,40.8,30.23,SSW,213,0.0,0.0,82,0.00,,,0.00,Wunderground v.1.13,2013-02-05 05:50:00,
2013-02-05 06:55:00,45.8,40.6,30.23,North,360,0.0,0.0,82,0.00,,,0.00,Wunderground v.1.13,2013-02-05 05:55:00,
2013-02-05 07:00:00,45.7,40.8,30.23,North,360,0.0,0.0,83,0.00,,,0.00,Wunderground v.1.13,2013-02-05 06:00:00,
2013-02-05 07:05:00,45.5,40.6,30.23,SSW,213,0.0,0.0,83,0.00,,,0.00,Wunderground v.1.13,2013-02-05 06:05:00,
2013-02-05 07:15:00,45.8,41.2,30.22,SW,232,0.0,2.0,84,0.00,,,0.00,Wunderground v.1.13,2013-02-05 06:15:00,
2013-02-05 07:25:00,46.6,42.0,30.22,SW,233,1.0,2.0,84,0.00,,,0.00,Wunderground v.1.13,2013-02-05 06:25:00,
2013-02-05 07:30:00,46.9,42.3,30.22,SW,232,1.0,1.0,84,0.00,,,0.00,Wunderground v.1.13,2013-02-05 06:30:00,
2013-02-05 07:40:00,47.0,42.1,30.22,WSW,239,0.0,0.0,83,0.00,,,0.00,Wunderground v.1.13,2013-02-05 06:40:00,
2013-02-05 07:50:00,46.7,41.8,30.22,North,360,0.0,2.0,83,0.00,,,0.00,Wunderground v.1.13,2013-02-05 06:50:00,
2013-02-05 07:55:00,46.7,41.8,30.22,WSW,239,0.0,2.0,83,0.00,,,0.00,Wunderground v.1.13,2013-02-05 06:55:00,
2013-02-05 08:00:00,46.8,41.9,30.23,North,360,1.0,1.0,83,0.00,,,0.00,Wunderground v.1.13,2013-02-05 07:00:00,
2013-02-05 08:10:00,46.3,41.1,30.23,WSW,247,0.0,1.0,82,0.00,,,0.00,Wunderground v.1.13,2013-02-05 07:10:00,
2013-02-05 08:15:00,46.4,41.2,30.23,WSW,246,0.0,0.0,82,0.00,,,0.00,Wunderground v.1.13,2013-02-05 07:15:00,
2013-02-05 08:25:00,47.8,42.9,30.23,SSW,209,2.0,5.0,83,0.00,,,0.00,Wunderground v.1.13,2013-02-05 07:25:00,
2013-02-05 08:30:00,48.7,43.5,30.23,West,259,3.0,3.0,82,0.00,,,0.00,Wunderground v.1.13,2013-02-05 07:30:00,
2013-02-05 08:35:00,49.1,43.5,30.22,West,259,2.0,2.0,81,0.00,,,0.00,Wunderground v.1.13,2013-02-05 07:35:00,
2013-02-05 08:40:00,49.2,43.3,30.22,WSW,254,1.0,1.0,80,0.00,,,0.00,Wunderground v.1.13,2013-02-05 07:40:00,
2013-02-05 08:45:00,49.3,43.7,30.22,WSW,253,0.0,0.0,81,0.00,,,0.00,Wunderground v.1.13,2013-02-05 07:45:00,
2013-02-05 08:55:00,49.9,44.3,30.23,North,360,1.0,1.0,81,0.00,,,0.00,Wunderground v.1.13,2013-02-05 07:55:00,
2013-02-05 09:05:00,50.8,45.2,30.22,WSW,242,0.0,1.0,81,0.00,,,0.00,Wunderground v.1.13,2013-02-05 08:05:00,
2013-02-05 09:10:00,51.1,45.1,30.22,SW,226,1.0,5.0,80,0.00,,,0.00,Wunderground v.1.13,2013-02-05 08:10:00,
2013-02-05 09:15:00,51.4,45.4,30.22,North,360,2.0,2.0,80,0.00,,,0.00,Wunderground v.1.13,2013-02-05 08:15:00,
2013-02-05 09:20:00,51.6,45.6,30.22,West,259,1.0,4.0,80,0.00,,,0.00,Wunderground v.1.13,2013-02-05 08:20:00,
2013-02-05 09:30:00,51.7,45.7,30.22,North,360,2.0,2.0,80,0.00,,,0.00,Wunderground v.1.13,2013-02-05 08:30:00,
2013-02-05 09:35:00,51.9,45.6,30.22,SSW,194,2.0,2.0,79,0.00,,,0.00,Wunderground v.1.13,2013-02-05 08:35:00,
2013-02-05 09:40:00,52.3,46.0,30.22,SW,223,3.0,3.0,79,0.00,,,0.00,Wunderground v.1.13,2013-02-05 08:40:00,
2013-02-05 09:50:00,53.2,46.5,30.22,SSW,194,1.0,6.0,78,0.00,,,0.00,Wunderground v.1.13,2013-02-05 08:50:00,
2013-02-05 09:55:00,53.7,47.0,30.22,SSW,200,1.0,5.0,78,0.00,,,0.00,Wunderground v.1.13,2013-02-05 08:55:00,
2013-02-05 10:05:00,54.3,47.6,30.21,SW,227,1.0,5.0,78,0.00,,,0.00,Wunderground v.1.13,2013-02-05 09:05:00,
2013-02-05 10:10:00,54.6,47.9,30.21,SSW,198,2.0,2.0,78,0.00,,,0.00,Wunderground v.1.13,2013-02-05 09:10:00,
2013-02-05 10:15:00,54.8,48.1,30.21,WSW,246,3.0,6.0,78,0.00,,,0.00,Wunderground v.1.13,2013-02-05 09:15:00,
2013-02-05 10:20:00,55.0,47.9,30.21,West,266,3.0,6.0,77,0.00,,,0.00,Wunderground v.1.13,2013-02-05 09:20:00,
2013-02-05 10:25:00,55.0,47.9,30.21,West,261,4.0,6.0,77,0.00,,,0.00,Wunderground v.1.13,2013-02-05 09:25:00,
2013-02-05 10:30:00,55.2,48.1,30.21,SW,216,3.0,5.0,77,0.00,,,0.00,Wunderground v.1.13,2013-02-05 09:30:00,
2013-02-05 10:35:00,55.1,48.0,30.21,WSW,242,3.0,3.0,77,0.00,,,0.00,Wunderground v.1.13,2013-02-05 09:35:00,
2013-02-05 10:40:00,55.1,48.0,30.21,WSW,256,2.0,2.0,77,0.00,,,0.00,Wunderground v.1.13,2013-02-05 09:40:00,
2013-02-05 10:45:00,55.4,48.7,30.21,WSW,240,2.0,2.0,78,0.00,,,0.00,Wunderground v.1.13,2013-02-05 09:45:00,
2013-02-05 10:50:00,55.6,48.8,30.21,WSW,240,1.0,1.0,78,0.00,,,0.00,Wunderground v.1.13,2013-02-05 09:50:00,
2013-02-05 10:55:00,55.9,49.1,30.21,WSW,252,1.0,4.0,78,0.00,,,0.00,Wunderground v.1.13,2013-02-05 09:55:00,
2013-02-05 11:00:00,56.1,49.3,30.21,WSW,253,2.0,2.0,78,0.00,,,0.00,Wunderground v.1.13,2013-02-05 10:00:00,
2013-02-05 11:10:00,56.6,49.5,30.20,SW,232,2.0,5.0,77,0.00,,,0.00,Wunderground v.1.13,2013-02-05 10:10:00,
2013-02-05 11:15:00,57.1,50.0,30.20,SSW,195,2.0,5.0,77,0.00,,,0.00,Wunderground v.1.13,2013-02-05 10:15:00,
2013-02-05 11:20:00,57.8,49.9,30.20,West,263,2.0,7.0,75,0.00,,,0.00,Wunderground v.1.13,2013-02-05 10:20:00,
2013-02-05 11:25:00,58.2,50.0,30.20,WNW,282,3.0,3.0,74,0.00,,,0.00,Wunderground v.1.13,2013-02-05 10:25:00,
2013-02-05 11:30:00,58.9,49.9,30.20,West,264,2.0,2.0,72,0.00,,,0.00,Wunderground v.1.13,2013-02-05 10:30:00,
2013-02-05 11:35:00,59.6,50.2,30.20,SW,234,1.0,5.0,71,0.00,,,0.00,Wunderground v.1.13,2013-02-05 10:35:00,
2013-02-05 11:45:00,60.3,49.7,30.20,West,261,2.0,7.0,68,0.00,,,0.00,Wunderground v.1.13,2013-02-05 10:45:00,
2013-02-05 11:50:00,60.4,48.2,30.20,WSW,242,3.0,3.0,64,0.00,,,0.00,Wunderground v.1.13,2013-02-05 10:50:00,
2013-02-05 11:55:00,61.0,47.4,30.19,WSW,254,3.0,3.0,61,0.00,,,0.00,Wunderground v.1.13,2013-02-05 10:55:00,
2013-02-05 12:00:00,61.2,47.6,30.19,WSW,244,4.0,5.0,61,0.00,,,0.00,Wunderground v.1.13,2013-02-05 11:00:00,
2013-02-05 12:10:00,61.1,46.2,30.19,WNW,290,5.0,10.0,58,0.00,,,0.00,Wunderground v.1.13,2013-02-05 11:10:00,
2013-02-05 12:15:00,61.1,45.7,30.19,WNW,284,7.0,7.0,57,0.00,,,0.00,Wunderground v.1.13,2013-02-05 11:15:00,
2013-02-05 12:20:00,60.8,45.5,30.19,West,275,7.0,9.0,57,0.00,,,0.00,Wunderground v.1.13,2013-02-05 11:20:00,
2013-02-05 12:30:00,61.1,45.7,30.18,West,273,8.0,8.0,57,0.00,,,0.00,Wunderground v.1.13,2013-02-05 11:30:00,
2013-02-05 12:35:00,60.8,45.5,30.18,West,266,8.0,9.0,57,0.00,,,0.00,Wunderground v.1.13,2013-02-05 11:35:00,
2013-02-05 12:40:00,60.9,45.6,30.18,West,271,8.0,8.0,57,0.00,,,0.00,Wunderground v.1.13,2013-02-05 11:40:00,
2013-02-05 12:45:00,60.9,45.6,30.18,NW,325,7.0,7.0,57,0.00,,,0.00,Wunderground v.1.13,2013-02-05 11:45:00,
2013-02-05 12:55:00,60.8,45.5,30.18,WSW,252,7.0,12.0,57,0.00,,,0.00,Wunderground v.1.13,2013-02-05 11:55:00,
2013-02-05 13:00:00,60.5,45.6,30.17,NW,307,7.0,7.0,58,0.00,,,0.00,Wunderground v.1.13,2013-02-05 12:00:00,
2013-02-05 13:10:00,61.0,45.7,30.17,NNW,333,6.0,6.0,57,0.00,,,0.00,Wunderground v.1.13,2013-02-05 12:10:00,
2013-02-05 13:15:00,61.0,45.2,30.17,WNW,296,8.0,8.0,56,0.00,,,0.00,Wunderground v.1.13,2013-02-05 12:15:00,
2013-02-05 13:25:00,60.6,45.3,30.17,NW,325,8.0,8.0,57,0.00,,,0.00,Wunderground v.1.13,2013-02-05 12:25:00,
2013-02-05 13:30:00,60.8,45.5,30.16,West,271,8.0,8.0,57,0.00,,,0.00,Wunderground v.1.13,2013-02-05 12:30:00,
2013-02-05 13:35:00,61.2,45.8,30.16,WNW,292,6.0,8.0,57,0.00,,,0.00,Wunderground v.1.13,2013-02-05 12:35:00,
2013-02-05 13:40:00,61.4,46.0,30.16,WNW,298,6.0,6.0,57,0.00,,,0.00,Wunderground v.1.13,2013-02-05 12:40:00,
2013-02-05 13:50:00,61.7,45.8,30.15,WNW,294,6.0,11.0,56,0.00,,,0.00,Wunderground v.1.13,2013-02-05 12:50:00,
2013-02-05 13:55:00,61.6,45.7,30.15,West,259,7.0,7.0,56,0.00,,,0.00,Wunderground v.1.13,2013-02-05 12:55:00,
2013-02-05 14:05:00,61.7,45.8,30.15,WNW,296,7.0,10.0,56,0.00,,,0.00,Wunderground v.1.13,2013-02-05 13:05:00,
2013-02-05 14:10:00,61.8,45.9,30.14,WNW,301,7.0,7.0,56,0.00,,,0.00,Wunderground v.1.13,2013-02-05 13:10:00,
2013-02-05 14:15:00,61.6,45.3,30.14,WNW,296,8.0,15.0,55,0.00,,,0.00,Wunderground v.1.13,2013-02-05 13:15:00,
2013-02-05 14:25:00,61.4,45.6,30.13,WNW,293,9.0,9.0,56,0.00,,,0.00,Wunderground v.1.13,2013-02-05 13:25:00,
2013-02-05 14:30:00,61.4,45.6,30.13,West,270,8.0,8.0,56,0.00,,,0.00,Wunderground v.1.13,2013-02-05 13:30:00,
2013-02-05 14:35:00,61.1,45.3,30.12,WNW,294,8.0,13.0,56,0.00,,,0.00,Wunderground v.1.13,2013-02-05 13:35:00,
2013-02-05 14:40:00,60.8,45.5,30.12,NW,317,9.0,9.0,57,0.00,,,0.00,Wunderground v.1.13,2013-02-05 13:40:00,
2013-02-05 14:50:00,61.1,45.3,30.12,West,275,7.0,11.0,56,0.00,,,0.00,Wunderground v.1.13,2013-02-05 13:50:00,
2013-02-05 14:55:00,61.0,45.2,30.12,WNW,300,7.0,13.0,56,0.00,,,0.00,Wunderground v.1.13,2013-02-05 13:55:00,
2013-02-05 15:05:00,60.9,45.1,30.12,NW,312,8.0,8.0,56,0.00,,,0.00,Wunderground v.1.13,2013-02-05 14:05:00,
2013-02-05 15:10:00,61.1,45.3,30.12,WNW,288,7.0,7.0,56,0.00,,,0.00,Wunderground v.1.13,2013-02-05 14:10:00,
2013-02-05 15:15:00,60.9,45.6,30.11,WNW,296,7.0,9.0,57,0.00,,,0.00,Wunderground v.1.13,2013-02-05 14:15:00,
2013-02-05 15:20:00,61.1,45.7,30.11,West,271,6.0,6.0,57,0.00,,,0.00,Wunderground v.1.13,2013-02-05 14:20:00,
2013-02-05 15:25:00,61.3,45.9,30.11,West,269,5.0,12.0,57,0.00,,,0.00,Wunderground v.1.13,2013-02-05 14:25:00,
2013-02-05 15:35:00,60.9,46.0,30.11,NW,319,7.0,11.0,58,0.00,,,0.00,Wunderground v.1.13,2013-02-05 14:35:00,
2013-02-05 15:40:00,60.9,45.6,30.11,NW,318,7.0,10.0,57,0.00,,,0.00,Wunderground v.1.13,2013-02-05 14:40:00,
2013-02-05 15:45:00,61.1,45.3,30.11,NW,324,6.0,9.0,56,0.00,,,0.00,Wunderground v.1.13,2013-02-05 14:45:00,
2013-02-05 15:55:00,61.0,45.2,30.10,NNW,331,7.0,15.0,56,0.00,,,0.00,Wunderground v.1.13,2013-02-05 14:55:00,
2013-02-05 16:00:00,61.0,45.2,30.11,WNW,285,7.0,7.0,56,0.00,,,0.00,Wunderground v.1.13,2013-02-05 15:00:00,
2013-02-05 16:10:00,61.6,44.8,30.10,NW,319,4.0,8.0,54,0.00,,,0.00,Wunderground v.1.13,2013-02-05 15:10:00,
2013-02-05 16:15:00,61.7,44.9,30.10,NNW,328,3.0,7.0,54,0.00,,,0.00,Wunderground v.1.13,2013-02-05 15:15:00,
2013-02-05 16:20:00,62.1,44.8,30.10,WNW,288,2.0,4.0,53,0.00,,,0.00,Wunderground v.1.13,2013-02-05 15:20:00,
2013-02-05 16:25:00,62.2,44.3,30.09,NW,323,1.0,1.0,52,0.00,,,0.00,Wunderground v.1.13,2013-02-05 15:25:00,
2013-02-05 16:30:00,62.8,44.9,30.10,NW,304,1.0,6.0,52,0.00,,,0.00,Wunderground v.1.13,2013-02-05 15:30:00,
2013-02-05 16:35:00,62.2,43.8,30.09,WNW,291,3.0,13.0,51,0.00,,,0.00,Wunderground v.1.13,2013-02-05 15:35:00,
2013-02-05 16:40:00,61.9,44.1,30.09,West,278,6.0,6.0,52,0.00,,,0.00,Wunderground v.1.13,2013-02-05 15:40:00,
2013-02-05 16:45:00,62.3,44.4,30.09,West,271,4.0,4.0,52,0.00,,,0.00,Wunderground v.1.13,2013-02-05 15:45:00,
2013-02-05 16:55:00,61.6,43.8,30.09,WSW,258,5.0,5.0,52,0.00,,,0.00,Wunderground v.1.13,2013-02-05 15:55:00,
2013-02-05 17:00:00,61.3,44.0,30.09,West,260,6.0,6.0,53,0.00,,,0.00,Wunderground v.1.13,2013-02-05 16:00:00,
2013-02-05 17:10:00,60.8,43.6,30.09,WNW,292,6.0,12.0,53,0.00,,,0.00,Wunderground v.1.13,2013-02-05 16:10:00,
2013-02-05 17:15:00,60.8,43.6,30.09,WNW,299,5.0,8.0,53,0.00,,,0.00,Wunderground v.1.13,2013-02-05 16:15:00,
2013-02-05 17:20:00,60.6,43.4,30.08,WNW,303,6.0,12.0,53,0.00,,,0.00,Wunderground v.1.13,2013-02-05 16:20:00,
2013-02-05 17:25:00,60.5,43.8,30.08,NW,310,6.0,11.0,54,0.00,,,0.00,Wunderground v.1.13,2013-02-05 16:25:00,
2013-02-05 17:35:00,60.0,43.3,30.07,WNW,293,3.0,3.0,54,0.00,,,0.00,Wunderground v.1.13,2013-02-05 16:35:00,
2013-02-05 17:40:00,59.8,43.6,30.08,WNW,284,3.0,4.0,55,0.00,,,0.00,Wunderground v.1.13,2013-02-05 16:40:00,
2013-02-05 17:45:00,59.7,44.0,30.07,SW,234,3.0,6.0,56,0.00,,,0.00,Wunderground v.1.13,2013-02-05 16:45:00,
2013-02-05 17:55:00,58.7,44.8,30.07,West,267,4.0,5.0,60,0.00,,,0.00,Wunderground v.1.13,2013-02-05 16:55:00,
2013-02-05 18:00:00,58.2,45.2,30.07,West,264,5.0,8.0,62,0.00,,,0.00,Wunderground v.1.13,2013-02-05 17:00:00,
2013-02-05 18:10:00,57.5,45.4,30.07,West,259,3.0,8.0,64,0.00,,,0.00,Wunderground v.1.13,2013-02-05 17:10:00,
2013-02-05 18:15:00,57.2,45.5,30.07,West,275,3.0,7.0,65,0.00,,,0.00,Wunderground v.1.13,2013-02-05 17:15:00,
2013-02-05 18:20:00,57.1,45.4,30.06,WSW,246,4.0,4.0,65,0.00,,,0.00,Wunderground v.1.13,2013-02-05 17:20:00,
2013-02-05 18:25:00,56.8,45.6,30.07,WNW,284,4.0,11.0,66,0.00,,,0.00,Wunderground v.1.13,2013-02-05 17:25:00,
2013-02-05 18:30:00,56.7,45.5,30.07,West,263,4.0,4.0,66,0.00,,,0.00,Wunderground v.1.13,2013-02-05 17:30:00,
2013-02-05 18:35:00,56.6,45.4,30.07,West,280,4.0,6.0,66,0.00,,,0.00,Wunderground v.1.13,2013-02-05 17:35:00,
2013-02-05 18:45:00,56.1,45.3,30.06,West,274,2.0,2.0,67,0.00,,,0.00,Wunderground v.1.13,2013-02-05 17:45:00,
2013-02-05 18:55:00,56.1,44.9,30.07,WSW,254,2.0,6.0,66,0.00,,,0.00,Wunderground v.1.13,2013-02-05 17:55:00,
2013-02-05 19:00:00,56.1,44.9,30.06,SW,229,3.0,5.0,66,0.00,,,0.00,Wunderground v.1.13,2013-02-05 18:00:00,
2013-02-05 19:10:00,56.0,44.8,30.06,WSW,242,3.0,5.0,66,0.00,,,0.00,Wunderground v.1.13,2013-02-05 18:10:00,
2013-02-05 19:20:00,55.7,44.5,30.06,West,263,2.0,2.0,66,0.00,,,0.00,Wunderground v.1.13,2013-02-05 18:20:00,
2013-02-05 19:25:00,55.3,44.5,30.06,West,260,2.0,8.0,67,0.00,,,0.00,Wunderground v.1.13,2013-02-05 18:25:00,
2013-02-05 19:30:00,55.1,44.7,30.06,WSW,253,3.0,3.0,68,0.00,,,0.00,Wunderground v.1.13,2013-02-05 18:30:00,
2013-02-05 19:35:00,54.8,44.4,30.05,WSW,247,4.0,4.0,68,0.00,,,0.00,Wunderground v.1.13,2013-02-05 18:35:00,
2013-02-05 19:40:00,54.6,44.6,30.05,West,263,3.0,3.0,69,0.00,,,0.00,Wunderground v.1.13,2013-02-05 18:40:00,
2013-02-05 19:45:00,54.4,44.4,30.05,SW,225,1.0,2.0,69,0.00,,,0.00,Wunderground v.1.13,2013-02-05 18:45:00,
2013-02-05 19:50:00,54.2,44.2,30.05,WSW,252,1.0,4.0,69,0.00,,,0.00,Wunderground v.1.13,2013-02-05 18:50:00,
2013-02-05 19:55:00,53.9,44.3,30.05,WSW,241,1.0,5.0,70,0.00,,,0.00,Wunderground v.1.13,2013-02-05 18:55:00,
2013-02-05 20:00:00,53.8,44.6,30.05,West,260,2.0,5.0,71,0.00,,,0.00,Wunderground v.1.13,2013-02-05 19:00:00,
2013-02-05 20:10:00,54.8,45.6,30.04,WSW,250,5.0,9.0,71,0.00,,,0.00,Wunderground v.1.13,2013-02-05 19:10:00,
2013-02-05 20:15:00,54.9,45.7,30.04,West,263,6.0,8.0,71,0.00,,,0.00,Wunderground v.1.13,2013-02-05 19:15:00,
2013-02-05 20:20:00,54.8,45.6,30.04,West,281,6.0,11.0,71,0.00,,,0.00,Wunderground v.1.13,2013-02-05 19:20:00,
2013-02-05 20:30:00,54.9,45.7,30.04,SW,235,6.0,6.0,71,0.00,,,0.00,Wunderground v.1.13,2013-02-05 19:30:00,
2013-02-05 20:40:00,54.6,45.8,30.04,WNW,282,4.0,5.0,72,0.00,,,0.00,Wunderground v.1.13,2013-02-05 19:40:00,
2013-02-05 20:45:00,54.3,45.8,30.04,West,273,4.0,4.0,73,0.00,,,0.00,Wunderground v.1.13,2013-02-05 19:45:00,
2013-02-05 20:50:00,54.2,45.7,30.03,WSW,254,3.0,3.0,73,0.00,,,0.00,Wunderground v.1.13,2013-02-05 19:50:00,
2013-02-05 20:55:00,54.2,46.1,30.03,WSW,254,3.0,6.0,74,0.00,,,0.00,Wunderground v.1.13,2013-02-05 19:55:00,
2013-02-05 21:00:00,54.1,46.3,30.03,WNW,298,3.0,4.0,75,0.00,,,0.00,Wunderground v.1.13,2013-02-05 20:00:00,
2013-02-05 21:10:00,53.7,46.7,30.03,North,360,1.0,6.0,77,0.00,,,0.00,Wunderground v.1.13,2013-02-05 20:10:00,
2013-02-05 21:15:00,53.5,46.8,30.03,West,263,1.0,1.0,78,0.00,,,0.00,Wunderground v.1.13,2013-02-05 20:15:00,
2013-02-05 21:25:00,53.2,47.2,30.02,WSW,244,0.0,6.0,80,0.00,,,0.00,Wunderground v.1.13,2013-02-05 20:25:00,
2013-02-05 21:30:00,53.1,47.7,30.02,North,360,1.0,4.0,82,0.00,,,0.00,Wunderground v.1.13,2013-02-05 20:30:00,
2013-02-05 21:35:00,53.0,48.0,30.02,SW,218,1.0,1.0,83,0.00,,,0.00,Wunderground v.1.13,2013-02-05 20:35:00,
2013-02-05 21:45:00,52.6,47.9,30.02,WSW,238,2.0,6.0,84,0.00,,,0.00,Wunderground v.1.13,2013-02-05 20:45:00,
2013-02-05 21:50:00,52.4,48.0,30.02,North,360,2.0,6.0,85,0.00,,,0.00,Wunderground v.1.13,2013-02-05 20:50:00,
2013-02-05 22:00:00,52.0,47.9,30.01,SSW,213,2.0,2.0,86,0.00,,,0.00,Wunderground v.1.13,2013-02-05 21:00:00,
2013-02-05 22:10:00,51.6,47.5,30.01,SSW,196,1.0,2.0,86,0.00,,,0.00,Wunderground v.1.13,2013-02-05 21:10:00,
2013-02-05 22:15:00,51.4,47.4,30.01,SSW,207,1.0,2.0,86,0.00,,,0.00,Wunderground v.1.13,2013-02-05 21:15:00,
2013-02-05 22:20:00,51.2,47.2,30.01,SSW,197,2.0,2.0,86,0.00,,,0.00,Wunderground v.1.13,2013-02-05 21:20:00,
2013-02-05 22:25:00,51.1,47.1,30.01,SW,233,1.0,1.0,86,0.00,,,0.00,Wunderground v.1.13,2013-02-05 21:25:00,
2013-02-05 22:30:00,51.1,47.1,30.00,WSW,254,2.0,6.0,86,0.00,,,0.00,Wunderground v.1.13,2013-02-05 21:30:00,
2013-02-05 22:40:00,51.3,46.9,30.00,West,263,3.0,3.0,85,0.00,,,0.00,Wunderground v.1.13,2013-02-05 21:40:00,
2013-02-05 22:45:00,51.4,46.7,30.00,WSW,258,3.0,3.0,84,0.00,,,0.00,Wunderground v.1.13,2013-02-05 21:45:00,
2013-02-05 22:50:00,51.4,46.4,29.99,WSW,256,2.0,2.0,83,0.00,,,0.00,Wunderground v.1.13,2013-02-05 21:50:00,
2013-02-05 22:55:00,51.4,46.4,29.99,West,268,2.0,6.0,83,0.00,,,0.00,Wunderground v.1.13,2013-02-05 21:55:00,
2013-02-05 23:00:00,51.4,46.4,29.99,WSW,256,3.0,3.0,83,0.00,,,0.00,Wunderground v.1.13,2013-02-05 22:00:00,
2013-02-05 23:10:00,51.2,46.2,29.98,WSW,242,1.0,1.0,83,0.00,,,0.00,Wunderground v.1.13,2013-02-05 22:10:00,
2013-02-05 23:15:00,51.0,46.0,29.98,West,261,2.0,5.0,83,0.00,,,0.00,Wunderground v.1.13,2013-02-05 22:15:00,
2013-02-05 23:25:00,50.8,45.8,29.98,WSW,240,3.0,6.0,83,0.00,,,0.00,Wunderground v.1.13,2013-02-05 22:25:00,
2013-02-05 23:30:00,50.6,45.6,29.97,West,264,2.0,5.0,83,0.00,,,0.00,Wunderground v.1.13,2013-02-05 22:30:00,
2013-02-05 23:35:00,50.4,45.7,29.97,North,360,2.0,2.0,84,0.00,,,0.00,Wunderground v.1.13,2013-02-05 22:35:00,
2013-02-05 23:40:00,50.3,45.6,29.97,North,360,2.0,6.0,84,0.00,,,0.00,Wunderground v.1.13,2013-02-05 22:40:00,
2013-02-05 23:50:00,50.3,45.6,29.96,WSW,246,3.0,3.0,84,0.00,,,0.00,Wunderground v.1.13,2013-02-05 22:50:00,
2013-02-05 23:55:00,50.3,45.6,29.96,WSW,247,3.0,7.0,84,0.00,,,0.00,Wunderground v.1.13,2013-02-05 22:55:00,